Time;durP1;ratioP1;P1;durP2;ratioP2;P2;SDS_P1;SDS_P2;PMS_P1;PMS_P2;Temp;Humidity;BMP_temperature;BMP_pressure;BME280_temperature;BME280_humidity;BME280_pressure;Samples;Min_cycle;Max_cycle;Signal;HPM_P1;HPM_P2
2023/08/01 06:35:04;;;;;;;15.77;6.97;;;16.40;99.90;;;;;;4972994;28;94328;-80
2023/08/01 06:37:29;;;;;;;14.13;6.18;;;16.40;99.90;;;;;;4991217;28;90248;-80
2023/08/01 06:39:57;;;;;;;14.07;5.95;;;16.50;99.90;;;;;;5014684;28;88873;-81
2023/08/01 06:42:23;;;;;;;16.92;6.10;;;16.50;99.90;;;;;;4998642;28;88460;-80
2023/08/01 06:44:50;;;;;;;15.55;6.20;;;16.60;99.90;;;;;;5015854;28;87937;-81
2023/08/01 06:47:16;;;;;;;14.27;6.43;;;16.60;99.90;;;;;;4996713;28;91273;-80
2023/08/01 06:49:41;;;;;;;15.70;5.95;;;16.60;99.90;;;;;;5015739;28;88885;-78
2023/08/01 06:52:07;;;;;;;15.13;6.80;;;16.60;99.90;;;;;;5016015;28;87587;-79
2023/08/01 06:54:33;;;;;;;16.15;6.38;;;16.70;99.90;;;;;;5017103;28;87810;-79
2023/08/01 06:56:59;;;;;;;16.02;6.28;;;16.70;99.90;;;;;;4997443;28;90306;-79
2023/08/01 06:59:25;;;;;;;15.20;5.57;;;16.70;99.90;;;;;;4997421;28;91094;-80
2023/08/01 07:01:51;;;;;;;16.80;6.28;;;16.80;99.90;;;;;;4998640;28;87335;-80
2023/08/01 07:04:17;;;;;;;19.05;6.45;;;16.80;99.90;;;;;;5014982;28;87769;-81
2023/08/01 07:06:43;;;;;;;17.27;5.93;;;16.80;99.80;;;;;;5015409;28;89570;-81
2023/08/01 07:09:10;;;;;;;13.98;6.20;;;16.80;99.90;;;;;;4998812;28;92059;-83
2023/08/01 07:11:35;;;;;;;12.82;6.15;;;16.80;99.50;;;;;;4998678;28;87625;-81
2023/08/01 07:14:01;;;;;;;17.00;6.28;;;16.90;99.70;;;;;;4998215;28;90279;-81
2023/08/01 07:16:27;;;;;;;16.70;6.18;;;17.00;99.80;;;;;;4999229;28;91198;-81
2023/08/01 07:18:52;;;;;;;16.67;6.43;;;17.00;99.70;;;;;;5017113;28;87980;-81
2023/08/01 07:21:18;;;;;;;15.07;5.70;;;17.00;99.40;;;;;;5000047;28;87129;-81
2023/08/01 07:23:44;;;;;;;15.30;5.43;;;17.10;99.50;;;;;;4998854;28;90485;-81
2023/08/01 07:26:10;;;;;;;16.05;5.70;;;17.10;99.40;;;;;;4999131;28;90181;-82
2023/08/01 07:28:35;;;;;;;13.15;5.55;;;17.10;98.90;;;;;;4999067;28;91714;-81
2023/08/01 07:31:04;;;;;;;18.50;6.00;;;17.10;99.30;;;;;;4998463;28;88923;-81
2023/08/01 07:33:30;;;;;;;12.80;5.18;;;17.10;99.40;;;;;;5017308;28;88047;-82
2023/08/01 07:35:56;;;;;;;18.10;5.82;;;17.20;99.20;;;;;;5016297;28;88522;-80
2023/08/01 07:38:21;;;;;;;12.43;5.25;;;17.20;99.40;;;;;;4998506;28;91655;-81
2023/08/01 07:40:47;;;;;;;15.77;6.07;;;17.40;99.40;;;;;;4999124;28;87757;-81
2023/08/01 07:43:13;;;;;;;13.57;5.25;;;17.40;99.10;;;;;;5016744;28;87715;-81
2023/08/01 07:45:39;;;;;;;15.32;5.75;;;17.50;99.20;;;;;;5017466;28;88395;-80
2023/08/01 07:48:05;;;;;;;14.52;5.32;;;17.50;98.60;;;;;;4998255;28;91143;-80
2023/08/01 07:50:30;;;;;;;12.32;5.18;;;17.60;98.40;;;;;;4999472;28;87463;-81
2023/08/01 07:52:57;;;;;;;14.93;5.30;;;17.70;98.20;;;;;;4997864;28;89631;-81
2023/08/01 07:55:23;;;;;;;14.40;5.28;;;17.70;97.70;;;;;;5016519;28;88800;-81
2023/08/01 07:57:48;;;;;;;16.10;6.03;;;17.70;97.90;;;;;;5016614;28;89071;-81
2023/08/01 08:00:15;;;;;;;15.00;5.55;;;17.70;97.90;;;;;;5017365;28;87750;-80
2023/08/01 08:02:41;;;;;;;17.20;5.60;;;17.80;97.80;;;;;;5015808;28;94949;-81
2023/08/01 08:05:08;;;;;;;15.45;6.20;;;17.90;98.00;;;;;;4998734;28;92022;-81
2023/08/01 08:07:33;;;;;;;12.20;5.95;;;18.00;97.10;;;;;;5016828;28;88684;-86
2023/08/01 08:10:05;;;;;;;22.38;6.90;;;18.10;97.00;;;;;;5011729;28;87527;-85
2023/08/01 08:12:30;;;;;;;14.18;5.85;;;18.10;96.60;;;;;;5019599;28;88279;-87
2023/08/01 08:14:56;;;;;;;26.30;7.35;;;18.20;96.80;;;;;;5003661;28;90749;-87
2023/08/01 08:17:22;;;;;;;11.88;5.43;;;18.20;96.20;;;;;;5007216;28;91497;-88
2023/08/01 08:19:48;;;;;;;11.23;5.43;;;18.20;96.30;;;;;;5010482;28;88307;-87
2023/08/01 08:22:14;;;;;;;12.95;4.75;;;18.20;96.10;;;;;;5007613;28;88366;-81
2023/08/01 08:24:40;;;;;;;14.10;5.05;;;18.10;95.00;;;;;;5021500;28;89021;-81
2023/08/01 08:27:06;;;;;;;13.02;4.72;;;18.10;95.30;;;;;;5028514;28;93488;-81
2023/08/01 08:29:32;;;;;;;11.55;4.70;;;18.00;94.90;;;;;;5004696;28;87649;-80
2023/08/01 08:31:58;;;;;;;14.10;4.65;;;18.00;95.60;;;;;;5019085;28;88063;-81
2023/08/01 08:34:24;;;;;;;12.50;4.20;;;18.10;95.50;;;;;;5024888;28;87639;-80
2023/08/01 08:36:50;;;;;;;11.95;4.22;;;18.10;94.90;;;;;;5006596;28;88953;-80
2023/08/01 08:39:19;;;;;;;11.90;4.05;;;18.10;94.70;;;;;;5009786;28;87573;-80
2023/08/01 08:41:51;;;;;;;11.25;4.60;;;18.10;94.40;;;;;;5021201;28;87569;-81
2023/08/01 08:44:20;;;;;;;17.17;4.97;;;18.10;94.70;;;;;;5019395;28;89437;-81
2023/08/01 08:46:52;;;;;;;10.20;4.05;;;18.20;94.80;;;;;;5003426;28;91040;-80
2023/08/01 08:49:20;;;;;;;10.93;3.45;;;18.20;95.00;;;;;;5023964;28;87852;-81
2023/08/01 08:51:46;;;;;;;8.52;3.40;;;18.30;94.70;;;;;;5021379;28;87515;-81
2023/08/01 08:54:14;;;;;;;10.73;4.22;;;18.30;94.40;;;;;;5020410;28;89504;-81
2023/08/01 08:56:43;;;;;;;12.70;4.28;;;18.30;95.00;;;;;;5024204;28;87764;-80
2023/08/01 08:59:12;;;;;;;8.93;3.92;;;18.30;95.30;;;;;;5022943;28;87510;-80
2023/08/01 09:01:39;;;;;;;9.23;4.03;;;18.40;95.90;;;;;;5005980;28;87999;-81
2023/08/01 09:04:05;;;;;;;9.13;4.10;;;18.50;95.60;;;;;;5021929;28;87426;-81
2023/08/01 09:06:55;;;;;;;8.07;3.65;;;18.60;95.20;;;;;;5025257;28;87455;-81
2023/08/01 09:09:22;;;;;;;11.80;3.30;;;18.70;94.70;;;;;;5007278;28;88486;-81
2023/08/01 09:11:49;;;;;;;9.98;3.63;;;18.80;94.20;;;;;;5025753;28;87190;-80
2023/08/01 09:14:16;;;;;;;14.98;3.90;;;18.90;93.90;;;;;;5006481;28;90331;-80
2023/08/01 09:16:42;;;;;;;7.88;3.75;;;19.00;93.40;;;;;;5005429;28;90518;-81
2023/08/01 09:19:09;;;;;;;10.38;3.90;;;19.00;93.80;;;;;;5004754;28;87757;-81
2023/08/01 09:21:38;;;;;;;8.25;3.78;;;19.10;92.50;;;;;;5004719;28;87930;-81
2023/08/01 09:24:15;;;;;;;8.30;3.53;;;19.20;92.10;;;;;;5022443;28;87661;-81
2023/08/01 09:26:42;;;;;;;10.82;3.78;;;19.20;92.40;;;;;;5009620;28;89023;-82
2023/08/01 09:29:08;;;;;;;9.88;3.65;;;19.20;92.60;;;;;;5007750;28;87884;-81
2023/08/01 09:31:40;;;;;;;9.20;3.22;;;19.30;92.90;;;;;;5005072;28;89675;-80
2023/08/01 09:34:17;;;;;;;13.48;3.42;;;19.40;91.90;;;;;;5020370;28;89094;-81
2023/08/01 09:36:43;;;;;;;10.25;3.00;;;19.50;92.40;;;;;;5018684;28;89346;-81
2023/08/01 09:39:08;;;;;;;7.47;2.65;;;19.60;91.70;;;;;;5018782;28;87568;-85
2023/08/01 09:41:34;;;;;;;8.15;3.08;;;19.70;91.20;;;;;;4998615;28;89472;-80
2023/08/01 09:44:00;;;;;;;8.13;2.35;;;19.80;91.00;;;;;;5016969;28;87563;-80
2023/08/01 09:46:25;;;;;;;6.95;2.42;;;19.80;89.90;;;;;;4998167;28;90005;-80
2023/08/01 09:48:51;;;;;;;11.32;3.08;;;19.90;91.10;;;;;;4998545;28;87241;-80
2023/08/01 09:51:18;;;;;;;8.20;2.42;;;20.00;91.30;;;;;;5000006;28;90817;-81
2023/08/01 09:53:55;;;;;;;9.38;2.58;;;20.20;91.00;;;;;;5016411;28;89187;-81
2023/08/01 09:56:24;;;;;;;6.55;2.30;;;20.30;91.00;;;;;;5016897;28;87888;-80
2023/08/01 09:58:51;;;;;;;9.82;2.17;;;20.50;90.90;;;;;;4997956;28;88578;-81
2023/08/01 10:01:20;;;;;;;7.22;1.88;;;20.60;86.80;;;;;;5016575;28;87407;-81
2023/08/01 10:03:48;;;;;;;6.78;2.35;;;20.60;90.40;;;;;;5016531;28;87829;-81
2023/08/01 10:06:21;;;;;;;11.48;3.15;;;20.70;90.30;;;;;;5016557;28;88943;-80
2023/08/01 10:08:48;;;;;;;11.85;1.88;;;20.80;89.10;;;;;;5017164;28;87478;-80
2023/08/01 10:11:18;;;;;;;7.40;2.50;;;20.80;89.80;;;;;;5016801;28;88179;-81
2023/08/01 10:13:45;;;;;;;8.30;2.38;;;20.90;90.20;;;;;;4998039;28;89489;-81
2023/08/01 10:16:12;;;;;;;6.15;2.20;;;20.90;91.80;;;;;;4998249;28;89749;-82
2023/08/01 10:18:38;;;;;;;7.10;2.60;;;21.10;90.30;;;;;;5016598;28;87813;-80
2023/08/01 10:21:06;;;;;;;11.85;3.42;;;21.10;88.80;;;;;;4998734;28;88459;-81
2023/08/01 10:23:36;;;;;;;6.68;2.60;;;21.10;90.10;;;;;;5014712;28;88563;-81
2023/08/01 10:26:06;;;;;;;7.22;2.15;;;21.10;86.60;;;;;;4998983;28;91333;-80
2023/08/01 10:28:37;;;;;;;7.63;3.13;;;20.90;86.90;;;;;;4998563;28;87808;-80
2023/08/01 10:31:07;;;;;;;6.50;2.03;;;20.80;86.80;;;;;;4997794;28;89698;-81
2023/08/01 10:33:34;;;;;;;4.10;1.95;;;20.80;88.60;;;;;;5015020;28;88520;-80
2023/08/01 10:36:00;;;;;;;5.25;1.83;;;20.80;89.30;;;;;;4997255;28;91889;-80
2023/08/01 10:38:26;;;;;;;6.95;2.08;;;20.90;87.80;;;;;;5015939;28;87772;-80
2023/08/01 10:40:51;;;;;;;7.97;1.85;;;20.90;86.50;;;;;;5015968;28;88010;-80
2023/08/01 10:43:25;;;;;;;8.02;2.00;;;21.00;86.10;;;;;;4997612;28;91591;-80
2023/08/01 10:46:03;;;;;;;;;;;21.00;85.10;;;;;;5016184;28;88687;-81
2023/08/01 10:48:29;;;;;;;5.43;1.52;;;21.00;84.60;;;;;;5014902;28;88403;-81
2023/08/01 10:50:58;;;;;;;6.35;2.40;;;20.90;84.40;;;;;;4996354;28;89920;-81
2023/08/01 10:53:23;;;;;;;5.88;1.85;;;20.90;86.00;;;;;;5015371;28;88708;-82
2023/08/01 10:55:49;;;;;;;6.18;2.30;;;20.90;87.30;;;;;;5015639;28;87562;-82
2023/08/01 10:58:15;;;;;;;7.38;1.98;;;21.00;88.90;;;;;;5015564;28;87642;-81
2023/08/01 11:00:44;;;;;;;8.45;2.13;;;21.00;89.40;;;;;;4997707;28;90832;-82
2023/08/01 11:03:10;;;;;;;6.03;2.40;;;21.00;88.60;;;;;;5016422;28;87831;-82
2023/08/01 11:05:35;;;;;;;10.32;2.28;;;21.00;88.60;;;;;;5015852;28;88937;-81
2023/08/01 11:08:03;;;;;;;14.60;2.83;;;21.00;90.00;;;;;;5016225;28;87699;-82
2023/08/01 11:10:30;;;;;;;7.30;2.70;;;20.90;90.40;;;;;;4997740;28;88349;-82
2023/08/01 11:12:56;;;;;;;8.50;2.50;;;20.90;90.20;;;;;;5014947;28;89579;-82
2023/08/01 11:15:22;;;;;;;9.27;1.88;;;20.90;90.20;;;;;;4998611;28;91890;-82
2023/08/01 11:17:50;;;;;;;4.57;1.58;;;20.90;90.30;;;;;;4997298;28;87756;-82
2023/08/01 11:20:17;;;;;;;4.78;1.83;;;21.00;88.70;;;;;;4997803;28;89548;-81
2023/08/01 11:22:57;;;;;;;9.45;2.58;;;21.00;89.90;;;;;;5015137;28;88534;-83
2023/08/01 11:25:40;;;;;;;5.35;1.67;;;21.20;90.70;;;;;;4997065;28;92706;-81
2023/08/01 11:28:16;;;;;;;5.97;2.42;;;21.40;88.50;;;;;;5014936;28;87195;-81
2023/08/01 11:30:43;;;;;;;8.85;2.15;;;21.50;87.70;;;;;;5016214;28;87485;-81
2023/08/01 11:33:16;;;;;;;10.88;2.30;;;21.60;87.00;;;;;;5016201;28;88713;-81
2023/08/01 11:35:42;;;;;;;5.05;1.73;;;21.70;86.80;;;;;;5013166;28;91434;-81
2023/08/01 11:38:08;;;;;;;7.47;1.65;;;21.80;86.90;;;;;;4996825;28;88812;-81
2023/08/01 11:40:34;;;;;;;7.43;1.63;;;21.90;86.10;;;;;;5015166;28;87761;-88
2023/08/01 11:43:00;;;;;;;4.85;1.83;;;22.10;85.80;;;;;;4996677;28;90788;-81
2023/08/01 11:45:26;;;;;;;7.63;1.98;;;22.10;78.40;;;;;;4996690;28;90296;-81
2023/08/01 11:47:52;;;;;;;3.58;1.65;;;22.20;79.40;;;;;;5014554;28;87610;-81
2023/08/01 11:50:25;;;;;;;5.10;1.80;;;22.40;78.20;;;;;;4996291;28;90437;-81
2023/08/01 11:52:52;;;;;;;4.88;1.70;;;22.40;76.40;;;;;;4996958;28;90031;-81
2023/08/01 11:55:22;;;;;;;7.88;2.03;;;22.50;76.00;;;;;;5014556;28;87215;-81
2023/08/01 11:57:58;;;;;;;8.40;1.55;;;22.50;76.80;;;;;;4995283;28;87768;-81
2023/08/01 12:00:26;;;;;;;6.07;1.95;;;22.50;76.50;;;;;;5015055;28;87512;-81
2023/08/01 12:02:51;;;;;;;4.97;1.50;;;22.50;76.10;;;;;;5013625;28;88624;-81
2023/08/01 12:05:24;;;;;;;6.35;1.83;;;22.60;75.90;;;;;;4996039;28;92400;-81
2023/08/01 12:07:52;;;;;;;7.50;2.00;;;22.80;76.50;;;;;;4997731;28;87655;-80
2023/08/01 12:10:18;;;;;;;6.00;1.23;;;22.90;76.30;;;;;;4996365;28;88115;-81
2023/08/01 12:12:48;;;;;;;5.78;1.58;;;22.80;73.50;;;;;;5014652;28;87374;-80
2023/08/01 12:15:15;;;;;;;7.72;1.85;;;22.60;71.80;;;;;;5015476;28;88413;-85
2023/08/01 12:17:41;;;;;;;6.47;1.85;;;22.40;71.20;;;;;;4996775;28;87780;-82
2023/08/01 12:20:07;;;;;;;6.97;1.60;;;22.20;72.10;;;;;;4997580;28;90436;-83
2023/08/01 12:22:33;;;;;;;5.40;1.50;;;22.00;74.10;;;;;;4996597;28;91861;-83
2023/08/01 12:24:58;;;;;;;4.97;1.55;;;21.80;74.00;;;;;;4995681;28;91283;-83
2023/08/01 12:27:24;;;;;;;7.82;1.58;;;21.70;75.90;;;;;;5015291;28;88627;-83
2023/08/01 12:29:50;;;;;;;9.48;1.80;;;21.60;76.50;;;;;;4996468;28;90423;-83
2023/08/01 12:32:15;;;;;;;3.33;1.27;;;21.60;77.30;;;;;;4996210;28;90644;-82
2023/08/01 12:34:41;;;;;;;5.88;1.70;;;21.60;77.50;;;;;;4996797;28;91306;-81
2023/08/01 12:37:06;;;;;;;13.68;2.60;;;21.70;77.50;;;;;;4996543;28;87159;-81
2023/08/01 12:39:32;;;;;;;8.77;1.70;;;21.70;78.70;;;;;;5016609;28;87445;-81
2023/08/01 12:41:58;;;;;;;5.45;1.38;;;21.60;78.20;;;;;;5018294;28;89088;-81
2023/08/01 12:44:23;;;;;;;4.32;1.30;;;21.50;77.80;;;;;;5017977;28;87264;-81
2023/08/01 12:46:49;;;;;;;4.60;1.63;;;21.30;78.10;;;;;;5017830;28;87526;-83
2023/08/01 12:49:15;;;;;;;4.25;1.58;;;21.10;80.20;;;;;;4997869;28;89274;-82
2023/08/01 12:51:41;;;;;;;4.95;1.27;;;20.90;81.70;;;;;;4999536;28;91624;-81
2023/08/01 12:54:06;;;;;;;4.55;1.60;;;20.90;83.70;;;;;;5018939;28;87349;-82
2023/08/01 12:56:32;;;;;;;6.88;2.03;;;20.90;85.70;;;;;;4999903;28;87468;-82
2023/08/01 12:58:58;;;;;;;9.68;2.47;;;20.90;86.60;;;;;;5017920;28;87509;-82
2023/08/01 13:01:26;;;;;;;7.40;2.13;;;20.90;89.10;;;;;;5017815;28;89249;-82
2023/08/01 13:03:52;;;;;;;5.18;1.80;;;21.00;83.30;;;;;;5016985;28;87525;-81
2023/08/01 13:06:17;;;;;;;4.88;1.75;;;21.20;88.80;;;;;;4999875;28;87682;-81
2023/08/01 13:08:43;;;;;;;5.57;1.60;;;21.40;85.60;;;;;;5017678;28;87149;-82
2023/08/01 13:11:15;;;;;;;8.55;1.73;;;21.70;82.50;;;;;;4998394;28;87978;-81
2023/08/01 13:13:41;;;;;;;4.80;1.58;;;22.20;80.10;;;;;;4999120;28;89763;-81
2023/08/01 13:16:08;;;;;;;4.45;1.65;;;22.40;80.20;;;;;;5016860;28;88436;-81
2023/08/01 13:18:33;;;;;;;5.65;1.38;;;22.60;75.10;;;;;;4998336;28;90568;-82
2023/08/01 13:21:01;;;;;;;4.60;1.35;;;22.50;74.80;;;;;;4998551;28;91197;-82
2023/08/01 13:23:27;;;;;;;8.52;1.70;;;22.40;75.50;;;;;;5015815;28;89815;-81
2023/08/01 13:25:52;;;;;;;5.63;1.45;;;22.40;76.10;;;;;;5017640;28;87907;-81
2023/08/01 13:28:18;;;;;;;4.28;1.20;;;22.40;76.20;;;;;;4998871;28;88250;-81
2023/08/01 13:30:44;;;;;;;7.38;1.40;;;22.20;75.60;;;;;;4999059;28;91953;-81
2023/08/01 13:33:09;;;;;;;6.38;1.70;;;22.00;75.10;;;;;;5017600;28;88570;-82
2023/08/01 13:35:35;;;;;;;8.10;2.13;;;21.70;75.50;;;;;;5016527;28;87647;-81
2023/08/01 13:38:03;;;;;;;4.70;1.70;;;21.50;76.50;;;;;;5017199;28;87866;-80
2023/08/01 13:40:28;;;;;;;6.30;1.63;;;21.30;77.00;;;;;;4997927;28;92125;-80
2023/08/01 13:42:54;;;;;;;5.00;1.70;;;21.10;78.30;;;;;;5016957;28;89843;-80
2023/08/01 13:45:20;;;;;;;7.45;1.85;;;21.00;80.30;;;;;;5000075;28;87749;-81
2023/08/01 13:47:45;;;;;;;3.78;1.20;;;20.90;78.00;;;;;;5017497;28;88018;-81
2023/08/01 13:50:11;;;;;;;4.38;1.10;;;20.60;79.00;;;;;;5014862;28;88565;-80
2023/08/01 13:52:37;;;;;;;5.97;1.33;;;20.50;80.20;;;;;;5014530;28;88143;-81
2023/08/01 13:55:03;;;;;;;7.25;1.10;;;20.40;81.10;;;;;;5014268;28;87755;-80
2023/08/01 13:57:29;;;;;;;3.45;1.30;;;20.20;80.70;;;;;;5015323;28;86688;-80
2023/08/01 13:59:55;;;;;;;6.18;1.55;;;20.10;82.10;;;;;;4995749;28;91903;-80
2023/08/01 14:02:20;;;;;;;7.30;1.23;;;19.90;81.60;;;;;;4996890;28;89012;-81
2023/08/01 14:04:46;;;;;;;5.10;1.33;;;19.80;82.60;;;;;;4997899;28;88873;-81
2023/08/01 14:07:11;;;;;;;4.47;1.17;;;19.80;83.40;;;;;;5017186;28;87719;-81
2023/08/01 14:09:37;;;;;;;3.83;1.05;;;19.70;84.00;;;;;;5017069;28;89094;-81
2023/08/01 14:12:04;;;;;;;5.22;1.38;;;19.80;84.10;;;;;;5016796;28;88582;-79
2023/08/01 14:14:29;;;;;;;5.88;1.25;;;19.90;84.00;;;;;;4997988;28;87633;-81
2023/08/01 14:16:55;;;;;;;3.95;0.90;;;20.00;83.10;;;;;;4990350;28;87876;-81
2023/08/01 14:19:21;;;;;;;6.90;1.25;;;20.20;83.10;;;;;;4958390;28;89932;-81
2023/08/01 14:21:46;;;;;;;4.97;1.38;;;20.40;82.90;;;;;;4977090;28;88642;-81
2023/08/01 14:24:12;;;;;;;3.22;1.05;;;20.70;83.60;;;;;;4977366;28;87563;-81
2023/08/01 14:26:39;;;;;;;6.88;1.23;;;21.00;78.70;;;;;;4957227;28;89771;-81
2023/08/01 14:29:04;;;;;;;5.18;1.30;;;21.20;79.20;;;;;;4957743;28;92936;-81
2023/08/01 14:31:30;;;;;;;5.53;0.70;;;21.30;78.10;;;;;;4976042;28;88926;-81
2023/08/01 14:33:55;;;;;;;4.32;1.15;;;21.50;77.70;;;;;;4975876;28;87491;-81
2023/08/01 14:36:21;;;;;;;8.70;1.10;;;21.60;75.90;;;;;;4976392;28;87755;-81
2023/08/01 14:38:54;;;;;;;4.63;1.20;;;21.70;76.30;;;;;;4976273;28;88006;-81
2023/08/01 14:41:19;;;;;;;5.97;1.13;;;21.90;74.00;;;;;;4975483;28;88351;-81
2023/08/01 14:43:45;;;;;;;4.35;0.98;;;22.10;75.20;;;;;;4958008;28;87877;-82
2023/08/01 14:46:10;;;;;;;8.32;1.65;;;22.30;73.70;;;;;;4958393;28;89494;-82
2023/08/01 14:48:36;;;;;;;7.25;1.45;;;22.50;71.30;;;;;;4976453;28;88630;-82
2023/08/01 14:51:07;;;;;;;3.47;0.93;;;22.50;71.40;;;;;;4956599;28;89745;-80
2023/08/01 14:53:32;;;;;;;4.70;0.98;;;22.60;72.00;;;;;;4958000;28;88449;-81
2023/08/01 14:56:04;;;;;;;4.82;0.93;;;22.50;70.20;;;;;;4976194;28;87418;-80
2023/08/01 14:58:29;;;;;;;4.75;1.10;;;22.50;71.80;;;;;;4975776;28;89644;-80
2023/08/01 15:00:55;;;;;;;3.17;1.42;;;22.40;71.10;;;;;;4974205;28;88345;-80
2023/08/01 15:03:21;;;;;;;6.60;1.65;;;22.20;71.40;;;;;;4959375;28;87593;-81
2023/08/01 15:05:46;;;;;;;6.85;1.45;;;22.00;72.60;;;;;;4957494;28;90619;-83
2023/08/01 15:08:12;;;;;;;4.20;1.23;;;21.80;71.60;;;;;;4974940;28;87613;-80
2023/08/01 15:10:38;;;;;;;4.18;1.10;;;21.60;71.90;;;;;;4975999;28;87438;-80
2023/08/01 15:13:07;;;;;;;9.40;1.15;;;21.40;72.80;;;;;;4956077;28;87873;-80
2023/08/01 15:15:37;;;;;;;7.25;1.23;;;21.10;73.40;;;;;;4957884;28;89527;-80
2023/08/01 15:18:06;;;;;;;6.43;1.00;;;20.90;74.90;;;;;;4957196;28;90594;-80
2023/08/01 15:20:35;;;;;;;12.35;1.75;;;20.80;76.30;;;;;;4974206;28;89372;-80
2023/08/01 15:23:04;;;;;;;6.65;1.50;;;20.70;77.00;;;;;;4975130;28;88414;-81
2023/08/01 15:25:29;;;;;;;5.25;1.33;;;20.60;76.80;;;;;;4956503;28;87861;-80
2023/08/01 15:27:55;;;;;;;3.65;1.02;;;20.40;77.90;;;;;;4957021;28;91333;-80
2023/08/01 15:30:20;;;;;;;4.15;0.95;;;20.40;79.40;;;;;;4957622;28;89798;-81
2023/08/01 15:32:46;;;;;;;6.85;1.90;;;20.30;80.70;;;;;;4956734;28;87699;-80
2023/08/01 15:35:14;;;;;;;3.80;1.30;;;20.10;82.20;;;;;;4956853;28;89416;-80
2023/08/01 15:37:39;;;;;;;7.30;1.45;;;19.90;84.50;;;;;;4973871;28;89147;-81
2023/08/01 15:40:06;;;;;;;5.28;1.30;;;19.70;86.00;;;;;;4973927;28;88743;-80
2023/08/01 15:42:35;;;;;;;5.03;1.33;;;19.60;86.50;;;;;;4957311;28;88961;-82
2023/08/01 15:45:01;;;;;;;7.47;1.45;;;19.50;86.50;;;;;;4970840;28;91969;-81
2023/08/01 15:47:26;;;;;;;5.57;1.50;;;19.40;86.20;;;;;;4957009;28;91466;-81
2023/08/01 15:49:52;;;;;;;3.78;1.48;;;19.20;86.70;;;;;;4956173;28;89149;-81
2023/08/01 15:52:17;;;;;;;3.75;1.15;;;19.10;87.20;;;;;;4957036;28;87907;-80
2023/08/01 15:54:43;;;;;;;3.95;1.38;;;19.10;88.30;;;;;;4974933;28;88069;-80
2023/08/01 15:57:09;;;;;;;6.72;1.25;;;19.10;88.20;;;;;;4957401;28;91488;-80
2023/08/01 15:59:35;;;;;;;6.50;1.70;;;19.10;87.50;;;;;;4974612;28;88487;-81
2023/08/01 16:02:00;;;;;;;5.50;1.13;;;19.00;87.30;;;;;;4974678;28;88614;-81
2023/08/01 16:04:26;;;;;;;3.88;1.08;;;19.00;88.00;;;;;;4974839;28;87689;-81
2023/08/01 16:06:52;;;;;;;6.13;1.17;;;19.00;88.30;;;;;;4956551;28;92467;-80
2023/08/01 16:09:17;;;;;;;4.55;1.13;;;19.10;87.90;;;;;;4976033;28;89291;-81
2023/08/01 16:11:43;;;;;;;4.78;0.90;;;19.10;88.10;;;;;;4957319;28;87635;-80
2023/08/01 16:14:08;;;;;;;5.38;1.10;;;19.10;87.70;;;;;;4976263;28;87529;-80
2023/08/01 16:16:34;;;;;;;6.07;1.10;;;19.10;87.30;;;;;;4959888;28;91577;-81
2023/08/01 16:19:00;;;;;;;5.40;1.23;;;19.10;86.90;;;;;;4976994;28;88556;-80
2023/08/01 16:21:25;;;;;;;3.90;1.35;;;19.00;86.70;;;;;;4960974;28;87908;-80
2023/08/01 16:23:51;;;;;;;5.72;1.30;;;19.00;88.30;;;;;;4959678;28;90552;-81
2023/08/01 16:26:16;;;;;;;7.30;1.30;;;19.00;87.80;;;;;;4959514;28;90423;-81
2023/08/01 16:28:42;;;;;;;6.57;1.80;;;18.90;88.60;;;;;;4960261;28;90214;-80
2023/08/01 16:31:08;;;;;;;5.30;1.27;;;18.90;89.90;;;;;;4960495;28;88770;-80
2023/08/01 16:33:33;;;;;;;5.85;1.05;;;18.70;90.00;;;;;;4978811;28;87702;-80
2023/08/01 16:35:59;;;;;;;5.20;1.60;;;18.70;90.20;;;;;;4959447;28;89212;-81
2023/08/01 16:38:24;;;;;;;3.97;1.10;;;18.70;90.80;;;;;;4977877;28;88726;-80
2023/08/01 16:40:50;;;;;;;6.60;1.35;;;18.70;90.50;;;;;;4959992;28;87768;-81
2023/08/01 16:43:16;;;;;;;7.40;1.48;;;18.70;90.80;;;;;;4959884;28;87784;-80
2023/08/01 16:45:42;;;;;;;6.90;1.40;;;18.70;90.50;;;;;;4960571;28;91948;-80
2023/08/01 16:48:07;;;;;;;8.48;1.50;;;18.70;90.50;;;;;;4978162;28;88238;-80
2023/08/01 16:50:33;;;;;;;6.18;1.75;;;18.70;90.40;;;;;;4977822;28;87678;-81
2023/08/01 16:52:58;;;;;;;6.75;1.80;;;18.80;90.50;;;;;;4959446;28;90303;-80
2023/08/01 16:55:24;;;;;;;8.10;1.88;;;18.80;90.80;;;;;;4959135;28;92765;-81
2023/08/01 16:57:50;;;;;;;5.35;1.20;;;18.90;90.40;;;;;;4959553;28;90823;-78
2023/08/01 17:00:15;;;;;;;5.72;1.42;;;18.90;90.40;;;;;;4978646;28;87868;-77
2023/08/01 17:02:41;;;;;;;7.88;1.40;;;18.90;90.50;;;;;;4978100;28;87966;-78
2023/08/01 17:05:07;;;;;;;5.88;1.42;;;18.90;90.10;;;;;;4977462;28;88648;-78
2023/08/01 17:07:33;;;;;;;8.52;2.22;;;18.90;90.30;;;;;;4959562;28;91721;-81
2023/08/01 17:10:02;;;;;;;9.02;1.83;;;18.90;90.10;;;;;;4977776;28;88044;-79
2023/08/01 17:12:28;;;;;;;5.97;1.58;;;18.80;90.30;;;;;;4977733;28;87294;-78
2023/08/01 17:14:53;;;;;;;7.38;1.58;;;18.80;90.10;;;;;;4977022;28;87953;-79
2023/08/01 17:17:19;;;;;;;7.22;1.45;;;18.80;90.40;;;;;;4977159;28;88048;-78
2023/08/01 17:19:47;;;;;;;9.52;1.40;;;18.80;90.40;;;;;;4976005;28;88739;-79
2023/08/01 17:22:12;;;;;;;11.45;2.45;;;18.90;90.30;;;;;;4977249;28;87651;-79
2023/08/01 17:24:38;;;;;;;4.93;1.50;;;18.90;90.20;;;;;;4977154;28;89086;-78
2023/08/01 17:27:04;;;;;;;7.13;1.40;;;18.90;90.50;;;;;;4977081;28;88374;-79
2023/08/01 17:29:30;;;;;;;9.32;1.85;;;19.00;90.70;;;;;;4976980;28;87625;-79
2023/08/01 17:31:56;;;;;;;6.82;1.58;;;19.20;90.70;;;;;;4977213;28;87289;-79
2023/08/01 17:34:21;;;;;;;10.73;1.52;;;19.50;90.00;;;;;;4977346;28;87746;-78
2023/08/01 17:36:47;;;;;;;4.78;1.20;;;19.80;89.90;;;;;;4977176;28;88876;-79
2023/08/01 17:39:12;;;;;;;7.50;1.60;;;20.20;87.20;;;;;;4959722;28;87524;-79
2023/08/01 17:41:38;;;;;;;5.90;1.38;;;20.50;85.70;;;;;;4976817;28;87423;-79
2023/08/01 17:44:04;;;;;;;6.63;1.42;;;20.90;83.60;;;;;;4957697;28;92390;-78
2023/08/01 17:46:29;;;;;;;9.57;1.60;;;21.00;83.40;;;;;;4976053;28;88804;-79
2023/08/01 17:48:55;;;;;;;4.63;1.17;;;21.10;83.50;;;;;;4958935;28;87812;-78
2023/08/01 17:51:21;;;;;;;6.82;1.73;;;21.00;81.80;;;;;;4959632;28;89136;-79
2023/08/01 17:53:47;;;;;;;5.60;1.08;;;20.70;83.00;;;;;;4976880;28;88690;-78
2023/08/01 17:56:13;;;;;;;10.30;1.83;;;20.60;84.10;;;;;;4976574;28;88036;-78
2023/08/01 17:58:39;;;;;;;7.13;1.40;;;20.50;85.10;;;;;;4976366;28;87678;-78
2023/08/01 18:01:09;;;;;;;6.38;1.55;;;20.40;84.90;;;;;;4958457;28;89299;-79
2023/08/01 18:03:35;;;;;;;8.32;1.17;;;20.30;85.70;;;;;;4976329;28;88591;-78
2023/08/01 18:06:09;;;;;;;6.95;1.27;;;20.20;86.70;;;;;;4975602;28;87956;-78
2023/08/01 18:08:35;;;;;;;10.05;1.10;;;20.20;87.10;;;;;;4975797;28;88236;-78
2023/08/01 18:11:02;;;;;;;6.25;1.30;;;20.10;87.90;;;;;;4976530;28;87458;-78
2023/08/01 18:13:27;;;;;;;6.13;1.33;;;20.10;87.70;;;;;;4976397;28;88606;-79
2023/08/01 18:15:53;;;;;;;7.68;1.50;;;20.00;88.30;;;;;;4975490;28;88288;-78
2023/08/01 18:18:19;;;;;;;8.13;1.40;;;20.00;88.60;;;;;;4976274;28;87350;-78
2023/08/01 18:20:45;;;;;;;4.13;1.08;;;19.90;88.60;;;;;;4975958;28;87822;-78
2023/08/01 18:23:11;;;;;;;6.60;1.38;;;19.80;89.40;;;;;;4958698;28;91895;-79
2023/08/01 18:25:36;;;;;;;9.13;1.70;;;19.80;89.80;;;;;;4975711;28;88690;-79
2023/08/01 18:28:02;;;;;;;8.20;1.40;;;19.70;89.90;;;;;;4976330;28;87715;-79
2023/08/01 18:30:29;;;;;;;10.77;1.50;;;19.80;90.20;;;;;;4977183;28;87815;-79
2023/08/01 18:32:55;;;;;;;6.05;1.75;;;19.80;90.20;;;;;;4957327;28;91131;-79
2023/08/01 18:35:20;;;;;;;9.25;1.65;;;19.80;90.50;;;;;;4957490;28;92438;-78
2023/08/01 18:37:46;;;;;;;5.20;1.17;;;19.80;90.60;;;;;;4957962;28;87782;-78
2023/08/01 18:40:14;;;;;;;8.50;1.67;;;19.70;91.30;;;;;;4975817;28;88091;-79
2023/08/01 18:42:40;;;;;;;5.07;1.30;;;19.60;92.00;;;;;;4976067;28;89157;-78
2023/08/01 18:45:06;;;;;;;7.18;1.70;;;19.60;92.00;;;;;;4975376;28;88564;-79
2023/08/01 18:47:32;;;;;;;6.95;1.58;;;19.70;91.80;;;;;;4975721;28;87508;-79
2023/08/01 18:49:57;;;;;;;6.40;1.33;;;19.70;92.10;;;;;;4976245;28;87112;-78
2023/08/01 18:52:23;;;;;;;8.07;1.48;;;19.80;91.70;;;;;;4975184;28;87453;-78
2023/08/01 18:54:52;;;;;;;3.78;0.85;;;19.80;91.80;;;;;;4975881;28;88174;-78
2023/08/01 18:57:17;;;;;;;5.90;1.42;;;19.70;91.90;;;;;;4976119;28;88528;-78
2023/08/01 18:59:43;;;;;;;3.95;0.88;;;19.70;92.30;;;;;;4975557;28;87591;-79
2023/08/01 19:02:09;;;;;;;3.92;1.30;;;19.60;92.20;;;;;;4975299;28;87607;-78
2023/08/01 19:04:35;;;;;;;5.50;1.10;;;19.60;92.00;;;;;;4975164;28;88235;-79
2023/08/01 19:07:00;;;;;;;6.72;1.55;;;19.50;92.40;;;;;;4975575;28;87365;-79
2023/08/01 19:09:26;;;;;;;5.50;1.30;;;19.50;92.80;;;;;;4976590;28;87598;-78
2023/08/01 19:11:51;;;;;;;6.85;1.13;;;19.40;92.80;;;;;;4974971;28;88474;-78
2023/08/01 19:14:17;;;;;;;3.30;1.00;;;19.40;92.80;;;;;;4976000;28;89385;-79
2023/08/01 19:16:43;;;;;;;4.05;0.95;;;19.30;93.10;;;;;;4975656;28;87301;-78